sensor_id;sensor_type;location;lat;lon;timestamp;P1;durP1;ratioP1;P2;durP2;ratioP2
25936;SDS011;13733;51.178;4.450;2023-04-01T00:00:26;8.98;;;3.38;;
25936;SDS011;13733;51.178;4.450;2023-04-01T00:02:52;13.65;;;3.90;;
25936;SDS011;13733;51.178;4.450;2023-04-01T00:05:17;11.82;;;3.70;;
25936;SDS011;13733;51.178;4.450;2023-04-01T00:07:43;12.80;;;3.78;;
25936;SDS011;13733;51.178;4.450;2023-04-01T00:10:10;15.02;;;4.55;;
25936;SDS011;13733;51.178;4.450;2023-04-01T00:12:37;13.02;;;4.78;;
25936;SDS011;13733;51.178;4.450;2023-04-01T00:15:04;17.08;;;4.82;;
25936;SDS011;13733;51.178;4.450;2023-04-01T00:17:33;10.88;;;4.90;;
25936;SDS011;13733;51.178;4.450;2023-04-01T00:19:59;14.98;;;5.18;;
25936;SDS011;13733;51.178;4.450;2023-04-01T00:22:25;15.77;;;5.22;;
25936;SDS011;13733;51.178;4.450;2023-04-01T00:24:51;9.55;;;5.15;;
25936;SDS011;13733;51.178;4.450;2023-04-01T00:27:17;14.80;;;6.78;;
25936;SDS011;13733;51.178;4.450;2023-04-01T00:29:44;18.10;;;6.15;;
25936;SDS011;13733;51.178;4.450;2023-04-01T00:32:10;17.02;;;6.63;;
25936;SDS011;13733;51.178;4.450;2023-04-01T00:34:37;14.90;;;7.35;;
25936;SDS011;13733;51.178;4.450;2023-04-01T00:37:03;17.05;;;6.90;;
25936;SDS011;13733;51.178;4.450;2023-04-01T00:39:32;16.98;;;7.07;;
25936;SDS011;13733;51.178;4.450;2023-04-01T00:42:00;14.95;;;7.18;;
25936;SDS011;13733;51.178;4.450;2023-04-01T00:44:27;19.05;;;7.35;;
25936;SDS011;13733;51.178;4.450;2023-04-01T00:46:58;16.50;;;8.00;;
25936;SDS011;13733;51.178;4.450;2023-04-01T00:49:35;17.55;;;9.57;;
25936;SDS011;13733;51.178;4.450;2023-04-01T00:52:07;18.02;;;8.50;;
25936;SDS011;13733;51.178;4.450;2023-04-01T00:54:35;18.40;;;8.93;;
25936;SDS011;13733;51.178;4.450;2023-04-01T00:57:07;15.38;;;9.30;;
25936;SDS011;13733;51.178;4.450;2023-04-01T00:59:38;14.55;;;8.20;;
25936;SDS011;13733;51.178;4.450;2023-04-01T01:02:09;20.23;;;9.48;;
25936;SDS011;13733;51.178;4.450;2023-04-01T01:04:37;17.38;;;8.73;;
25936;SDS011;13733;51.178;4.450;2023-04-01T01:10:19;16.55;;;9.43;;
25936;SDS011;13733;51.178;4.450;2023-04-01T01:15:24;18.17;;;10.80;;
25936;SDS011;13733;51.178;4.450;2023-04-01T01:29:05;17.63;;;11.10;;
25936;SDS011;13733;51.178;4.450;2023-04-01T01:37:25;22.23;;;11.75;;
25936;SDS011;13733;51.178;4.450;2023-04-01T01:39:56;19.15;;;11.73;;
25936;SDS011;13733;51.178;4.450;2023-04-01T01:42:28;19.20;;;11.80;;
25936;SDS011;13733;51.178;4.450;2023-04-01T01:44:56;18.00;;;8.98;;
25936;SDS011;13733;51.178;4.450;2023-04-01T01:47:25;16.55;;;6.50;;
25936;SDS011;13733;51.178;4.450;2023-04-01T01:49:53;12.38;;;6.00;;
25936;SDS011;13733;51.178;4.450;2023-04-01T01:52:21;9.73;;;5.75;;
25936;SDS011;13733;51.178;4.450;2023-04-01T01:54:54;11.93;;;6.32;;
25936;SDS011;13733;51.178;4.450;2023-04-01T01:57:28;14.68;;;6.97;;
25936;SDS011;13733;51.178;4.450;2023-04-01T02:00:06;16.77;;;7.50;;
25936;SDS011;13733;51.178;4.450;2023-04-01T02:02:40;12.35;;;7.20;;
25936;SDS011;13733;51.178;4.450;2023-04-01T02:05:09;14.25;;;7.40;;
25936;SDS011;13733;51.178;4.450;2023-04-01T02:07:38;17.08;;;7.90;;
25936;SDS011;13733;51.178;4.450;2023-04-01T02:10:07;17.05;;;9.95;;
25936;SDS011;13733;51.178;4.450;2023-04-01T02:12:34;18.92;;;9.77;;
25936;SDS011;13733;51.178;4.450;2023-04-01T02:15:04;13.80;;;9.15;;
25936;SDS011;13733;51.178;4.450;2023-04-01T02:17:34;15.75;;;9.15;;
25936;SDS011;13733;51.178;4.450;2023-04-01T02:20:06;14.07;;;10.05;;
25936;SDS011;13733;51.178;4.450;2023-04-01T02:22:51;13.57;;;9.55;;
25936;SDS011;13733;51.178;4.450;2023-04-01T02:25:21;11.02;;;9.07;;
25936;SDS011;13733;51.178;4.450;2023-04-01T02:27:50;10.65;;;8.88;;
25936;SDS011;13733;51.178;4.450;2023-04-01T02:30:17;11.32;;;8.57;;
25936;SDS011;13733;51.178;4.450;2023-04-01T02:32:45;9.27;;;7.57;;
25936;SDS011;13733;51.178;4.450;2023-04-01T02:35:13;15.48;;;8.68;;
25936;SDS011;13733;51.178;4.450;2023-04-01T02:37:40;17.80;;;9.90;;
25936;SDS011;13733;51.178;4.450;2023-04-01T02:40:09;16.20;;;9.80;;
25936;SDS011;13733;51.178;4.450;2023-04-01T02:42:37;14.68;;;8.68;;
25936;SDS011;13733;51.178;4.450;2023-04-01T02:45:03;10.60;;;8.38;;
25936;SDS011;13733;51.178;4.450;2023-04-01T02:47:29;9.43;;;7.90;;
25936;SDS011;13733;51.178;4.450;2023-04-01T02:49:55;14.70;;;7.90;;
25936;SDS011;13733;51.178;4.450;2023-04-01T02:52:27;10.10;;;7.32;;
25936;SDS011;13733;51.178;4.450;2023-04-01T02:54:56;10.05;;;7.32;;
25936;SDS011;13733;51.178;4.450;2023-04-01T02:57:22;12.45;;;7.30;;
25936;SDS011;13733;51.178;4.450;2023-04-01T02:59:49;7.72;;;5.78;;
25936;SDS011;13733;51.178;4.450;2023-04-01T03:02:15;8.55;;;5.43;;
25936;SDS011;13733;51.178;4.450;2023-04-01T03:04:41;8.55;;;5.32;;
25936;SDS011;13733;51.178;4.450;2023-04-01T03:07:07;8.50;;;4.70;;
25936;SDS011;13733;51.178;4.450;2023-04-01T03:09:35;6.10;;;4.25;;
25936;SDS011;13733;51.178;4.450;2023-04-01T03:12:02;9.55;;;5.03;;
25936;SDS011;13733;51.178;4.450;2023-04-01T03:14:30;9.35;;;5.63;;
25936;SDS011;13733;51.178;4.450;2023-04-01T03:16:56;10.23;;;5.45;;
25936;SDS011;13733;51.178;4.450;2023-04-01T03:19:21;9.00;;;6.22;;
25936;SDS011;13733;51.178;4.450;2023-04-01T03:21:47;12.40;;;6.50;;
25936;SDS011;13733;51.178;4.450;2023-04-01T03:24:13;11.98;;;7.72;;
25936;SDS011;13733;51.178;4.450;2023-04-01T03:26:38;9.55;;;7.28;;
25936;SDS011;13733;51.178;4.450;2023-04-01T03:29:04;11.05;;;7.30;;
25936;SDS011;13733;51.178;4.450;2023-04-01T03:31:30;8.73;;;6.38;;
25936;SDS011;13733;51.178;4.450;2023-04-01T03:33:56;11.25;;;6.93;;
25936;SDS011;13733;51.178;4.450;2023-04-01T03:36:22;13.55;;;7.85;;
25936;SDS011;13733;51.178;4.450;2023-04-01T03:38:48;11.60;;;8.45;;
25936;SDS011;13733;51.178;4.450;2023-04-01T03:41:19;13.35;;;7.80;;
25936;SDS011;13733;51.178;4.450;2023-04-01T03:43:46;16.50;;;8.45;;
25936;SDS011;13733;51.178;4.450;2023-04-01T03:46:16;13.18;;;8.65;;
25936;SDS011;13733;51.178;4.450;2023-04-01T03:48:45;14.15;;;8.75;;
25936;SDS011;13733;51.178;4.450;2023-04-01T03:51:11;11.82;;;8.55;;
25936;SDS011;13733;51.178;4.450;2023-04-01T03:53:37;12.05;;;7.97;;
25936;SDS011;13733;51.178;4.450;2023-04-01T03:56:05;12.60;;;9.05;;
25936;SDS011;13733;51.178;4.450;2023-04-01T03:58:34;18.60;;;8.77;;
25936;SDS011;13733;51.178;4.450;2023-04-01T04:01:01;11.93;;;7.50;;
25936;SDS011;13733;51.178;4.450;2023-04-01T04:03:28;16.83;;;9.27;;
25936;SDS011;13733;51.178;4.450;2023-04-01T04:05:54;18.20;;;9.18;;
25936;SDS011;13733;51.178;4.450;2023-04-01T04:08:21;13.45;;;9.23;;
25936;SDS011;13733;51.178;4.450;2023-04-01T04:10:51;13.45;;;10.02;;
25936;SDS011;13733;51.178;4.450;2023-04-01T04:13:20;18.45;;;10.43;;
25936;SDS011;13733;51.178;4.450;2023-04-01T04:15:52;18.02;;;10.52;;
25936;SDS011;13733;51.178;4.450;2023-04-01T04:18:18;21.15;;;11.43;;
25936;SDS011;13733;51.178;4.450;2023-04-01T04:20:44;15.30;;;11.35;;
25936;SDS011;13733;51.178;4.450;2023-04-01T04:23:12;17.45;;;11.02;;
25936;SDS011;13733;51.178;4.450;2023-04-01T04:25:39;17.00;;;10.27;;
25936;SDS011;13733;51.178;4.450;2023-04-01T04:28:05;12.43;;;9.23;;
25936;SDS011;13733;51.178;4.450;2023-04-01T04:30:30;12.75;;;8.45;;
25936;SDS011;13733;51.178;4.450;2023-04-01T04:32:56;13.73;;;9.27;;
25936;SDS011;13733;51.178;4.450;2023-04-01T04:35:22;14.60;;;9.75;;
25936;SDS011;13733;51.178;4.450;2023-04-01T04:37:48;17.77;;;9.00;;
25936;SDS011;13733;51.178;4.450;2023-04-01T04:40:14;12.75;;;8.15;;
25936;SDS011;13733;51.178;4.450;2023-04-01T04:42:41;13.80;;;9.35;;
25936;SDS011;13733;51.178;4.450;2023-04-01T04:45:10;12.70;;;9.40;;
25936;SDS011;13733;51.178;4.450;2023-04-01T04:47:42;13.27;;;9.35;;
25936;SDS011;13733;51.178;4.450;2023-04-01T04:50:08;13.98;;;8.43;;
25936;SDS011;13733;51.178;4.450;2023-04-01T04:52:38;14.57;;;9.67;;
25936;SDS011;13733;51.178;4.450;2023-04-01T04:55:04;14.40;;;9.63;;
25936;SDS011;13733;51.178;4.450;2023-04-01T04:57:30;17.98;;;12.38;;
25936;SDS011;13733;51.178;4.450;2023-04-01T04:59:56;16.85;;;12.25;;
25936;SDS011;13733;51.178;4.450;2023-04-01T05:02:38;21.13;;;12.18;;
25936;SDS011;13733;51.178;4.450;2023-04-01T05:05:04;19.55;;;11.98;;
25936;SDS011;13733;51.178;4.450;2023-04-01T05:07:30;12.23;;;9.25;;
25936;SDS011;13733;51.178;4.450;2023-04-01T05:09:56;11.93;;;9.57;;
25936;SDS011;13733;51.178;4.450;2023-04-01T05:12:21;14.65;;;9.77;;
25936;SDS011;13733;51.178;4.450;2023-04-01T05:14:56;11.30;;;8.38;;
25936;SDS011;13733;51.178;4.450;2023-04-01T05:17:23;12.38;;;9.25;;
25936;SDS011;13733;51.178;4.450;2023-04-01T05:19:48;11.40;;;9.23;;
25936;SDS011;13733;51.178;4.450;2023-04-01T05:22:14;12.00;;;10.13;;
25936;SDS011;13733;51.178;4.450;2023-04-01T05:24:40;11.48;;;9.40;;
25936;SDS011;13733;51.178;4.450;2023-04-01T05:27:06;17.10;;;10.43;;
25936;SDS011;13733;51.178;4.450;2023-04-01T05:29:35;14.45;;;12.07;;
25936;SDS011;13733;51.178;4.450;2023-04-01T05:32:05;15.05;;;10.85;;
25936;SDS011;13733;51.178;4.450;2023-04-01T05:34:31;13.43;;;9.35;;
25936;SDS011;13733;51.178;4.450;2023-04-01T05:36:57;15.63;;;11.25;;
25936;SDS011;13733;51.178;4.450;2023-04-01T05:39:22;14.38;;;11.90;;
25936;SDS011;13733;51.178;4.450;2023-04-01T05:41:49;13.73;;;11.27;;
25936;SDS011;13733;51.178;4.450;2023-04-01T05:44:15;15.13;;;11.57;;
25936;SDS011;13733;51.178;4.450;2023-04-01T05:47:01;14.48;;;10.60;;
25936;SDS011;13733;51.178;4.450;2023-04-01T05:49:27;16.58;;;11.15;;
25936;SDS011;13733;51.178;4.450;2023-04-01T05:51:53;16.10;;;12.32;;
25936;SDS011;13733;51.178;4.450;2023-04-01T05:54:19;15.15;;;10.27;;
25936;SDS011;13733;51.178;4.450;2023-04-01T05:56:45;15.30;;;10.82;;
25936;SDS011;13733;51.178;4.450;2023-04-01T05:59:11;16.17;;;11.63;;
25936;SDS011;13733;51.178;4.450;2023-04-01T06:01:37;12.60;;;9.55;;
25936;SDS011;13733;51.178;4.450;2023-04-01T06:04:03;11.43;;;9.27;;
25936;SDS011;13733;51.178;4.450;2023-04-01T06:06:29;15.18;;;11.45;;
25936;SDS011;13733;51.178;4.450;2023-04-01T06:09:18;12.35;;;10.23;;
25936;SDS011;13733;51.178;4.450;2023-04-01T06:15:01;14.70;;;12.05;;
25936;SDS011;13733;51.178;4.450;2023-04-01T06:17:51;17.93;;;12.97;;
25936;SDS011;13733;51.178;4.450;2023-04-01T06:20:39;13.85;;;12.35;;
25936;SDS011;13733;51.178;4.450;2023-04-01T06:28:29;18.08;;;10.40;;
25936;SDS011;13733;51.178;4.450;2023-04-01T06:45:04;16.13;;;11.50;;
25936;SDS011;13733;51.178;4.450;2023-04-01T06:52:13;14.35;;;10.85;;
25936;SDS011;13733;51.178;4.450;2023-04-01T06:54:38;8.65;;;7.75;;
25936;SDS011;13733;51.178;4.450;2023-04-01T06:57:43;10.15;;;8.00;;
25936;SDS011;13733;51.178;4.450;2023-04-01T07:05:33;8.68;;;7.13;;
25936;SDS011;13733;51.178;4.450;2023-04-01T07:08:08;8.38;;;7.47;;
25936;SDS011;13733;51.178;4.450;2023-04-01T07:10:43;7.82;;;6.22;;
25936;SDS011;13733;51.178;4.450;2023-04-01T07:13:55;7.53;;;5.75;;
25936;SDS011;13733;51.178;4.450;2023-04-01T07:16:32;11.00;;;7.25;;
25936;SDS011;13733;51.178;4.450;2023-04-01T07:19:16;9.18;;;7.57;;
25936;SDS011;13733;51.178;4.450;2023-04-01T07:22:06;7.40;;;6.70;;
25936;SDS011;13733;51.178;4.450;2023-04-01T07:25:13;7.15;;;6.32;;
25936;SDS011;13733;51.178;4.450;2023-04-01T07:27:44;8.88;;;6.10;;
25936;SDS011;13733;51.178;4.450;2023-04-01T07:30:14;6.72;;;5.85;;
25936;SDS011;13733;51.178;4.450;2023-04-01T07:33:11;7.50;;;5.57;;
25936;SDS011;13733;51.178;4.450;2023-04-01T07:36:03;9.65;;;4.95;;
25936;SDS011;13733;51.178;4.450;2023-04-01T07:47:17;5.40;;;3.80;;
25936;SDS011;13733;51.178;4.450;2023-04-01T07:53:07;7.03;;;5.15;;
25936;SDS011;13733;51.178;4.450;2023-04-01T08:07:34;9.55;;;5.18;;
25936;SDS011;13733;51.178;4.450;2023-04-01T08:09:40;4.35;;;3.95;;
25936;SDS011;13733;51.178;4.450;2023-04-01T08:21:17;6.70;;;4.40;;
25936;SDS011;13733;51.178;4.450;2023-04-01T08:24:18;6.65;;;4.85;;
25936;SDS011;13733;51.178;4.450;2023-04-01T08:26:54;5.15;;;4.65;;
25936;SDS011;13733;51.178;4.450;2023-04-01T08:29:47;7.13;;;4.70;;
25936;SDS011;13733;51.178;4.450;2023-04-01T08:32:35;5.78;;;4.95;;
25936;SDS011;13733;51.178;4.450;2023-04-01T08:37:57;4.97;;;4.40;;
25936;SDS011;13733;51.178;4.450;2023-04-01T09:00:13;5.95;;;4.43;;
25936;SDS011;13733;51.178;4.450;2023-04-01T09:03:22;6.25;;;4.20;;
25936;SDS011;13733;51.178;4.450;2023-04-01T09:26:10;3.92;;;2.28;;
25936;SDS011;13733;51.178;4.450;2023-04-01T09:45:32;3.90;;;2.40;;
25936;SDS011;13733;51.178;4.450;2023-04-01T10:02:03;5.35;;;2.30;;
25936;SDS011;13733;51.178;4.450;2023-04-01T10:16:55;4.25;;;2.90;;
25936;SDS011;13733;51.178;4.450;2023-04-01T10:25:29;5.55;;;3.70;;
25936;SDS011;13733;51.178;4.450;2023-04-01T10:31:13;6.60;;;4.50;;
25936;SDS011;13733;51.178;4.450;2023-04-01T10:54:17;4.30;;;2.53;;
25936;SDS011;13733;51.178;4.450;2023-04-01T11:00:30;4.68;;;3.40;;
25936;SDS011;13733;51.178;4.450;2023-04-01T11:03:23;10.32;;;3.35;;
25936;SDS011;13733;51.178;4.450;2023-04-01T11:09:56;5.88;;;3.63;;
25936;SDS011;13733;51.178;4.450;2023-04-01T11:15:53;7.57;;;3.67;;
25936;SDS011;13733;51.178;4.450;2023-04-01T11:23:51;6.05;;;3.78;;
25936;SDS011;13733;51.178;4.450;2023-04-01T11:26:41;5.45;;;3.30;;
25936;SDS011;13733;51.178;4.450;2023-04-01T11:32:34;6.25;;;3.28;;
25936;SDS011;13733;51.178;4.450;2023-04-01T11:38:02;5.95;;;3.05;;
25936;SDS011;13733;51.178;4.450;2023-04-01T11:40:54;6.35;;;3.75;;
25936;SDS011;13733;51.178;4.450;2023-04-01T11:43:59;7.97;;;3.30;;
25936;SDS011;13733;51.178;4.450;2023-04-01T11:55:49;6.57;;;3.38;;
25936;SDS011;13733;51.178;4.450;2023-04-01T12:07:06;6.10;;;2.40;;
25936;SDS011;13733;51.178;4.450;2023-04-01T12:17:49;8.25;;;3.75;;
25936;SDS011;13733;51.178;4.450;2023-04-01T12:23:19;7.28;;;3.22;;
25936;SDS011;13733;51.178;4.450;2023-04-01T12:26:08;6.22;;;3.10;;
25936;SDS011;13733;51.178;4.450;2023-04-01T12:31:58;5.30;;;3.80;;
25936;SDS011;13733;51.178;4.450;2023-04-01T12:51:32;3.47;;;3.17;;
25936;SDS011;13733;51.178;4.450;2023-04-01T12:54:08;4.07;;;3.13;;
25936;SDS011;13733;51.178;4.450;2023-04-01T13:08:37;3.42;;;3.13;;
25936;SDS011;13733;51.178;4.450;2023-04-01T13:16:57;4.85;;;4.15;;
25936;SDS011;13733;51.178;4.450;2023-04-01T13:19:36;4.50;;;4.10;;
25936;SDS011;13733;51.178;4.450;2023-04-01T13:22:14;6.03;;;4.75;;
25936;SDS011;13733;51.178;4.450;2023-04-01T13:25:01;7.20;;;5.47;;
25936;SDS011;13733;51.178;4.450;2023-04-01T13:36:53;7.47;;;5.00;;
25936;SDS011;13733;51.178;4.450;2023-04-01T13:42:33;7.13;;;5.25;;
25936;SDS011;13733;51.178;4.450;2023-04-01T13:50:26;6.82;;;4.82;;
25936;SDS011;13733;51.178;4.450;2023-04-01T14:06:09;4.70;;;2.90;;
25936;SDS011;13733;51.178;4.450;2023-04-01T14:28:19;4.57;;;3.28;;
25936;SDS011;13733;51.178;4.450;2023-04-01T14:36:27;4.50;;;3.35;;
25936;SDS011;13733;51.178;4.450;2023-04-01T14:39:27;3.95;;;3.45;;
25936;SDS011;13733;51.178;4.450;2023-04-01T14:44:48;6.47;;;3.90;;
25936;SDS011;13733;51.178;4.450;2023-04-01T14:47:50;4.22;;;3.78;;
25936;SDS011;13733;51.178;4.450;2023-04-01T14:50:41;5.00;;;3.30;;
25936;SDS011;13733;51.178;4.450;2023-04-01T14:58:11;5.75;;;2.60;;
25936;SDS011;13733;51.178;4.450;2023-04-01T15:06:43;4.45;;;3.15;;
25936;SDS011;13733;51.178;4.450;2023-04-01T15:13:09;3.88;;;3.42;;
25936;SDS011;13733;51.178;4.450;2023-04-01T15:18:03;5.80;;;3.70;;
25936;SDS011;13733;51.178;4.450;2023-04-01T15:20:56;4.97;;;3.10;;
25936;SDS011;13733;51.178;4.450;2023-04-01T15:23:34;2.63;;;2.15;;
25936;SDS011;13733;51.178;4.450;2023-04-01T15:31:00;5.20;;;2.95;;
25936;SDS011;13733;51.178;4.450;2023-04-01T15:36:36;5.30;;;3.80;;
25936;SDS011;13733;51.178;4.450;2023-04-01T15:39:40;5.10;;;3.60;;
25936;SDS011;13733;51.178;4.450;2023-04-01T15:47:26;3.08;;;2.35;;
25936;SDS011;13733;51.178;4.450;2023-04-01T15:50:28;4.15;;;1.77;;
25936;SDS011;13733;51.178;4.450;2023-04-01T15:53:08;3.13;;;1.90;;
25936;SDS011;13733;51.178;4.450;2023-04-01T15:55:39;3.15;;;1.75;;
25936;SDS011;13733;51.178;4.450;2023-04-01T16:00:49;2.88;;;1.95;;
25936;SDS011;13733;51.178;4.450;2023-04-01T16:03:38;2.90;;;2.13;;
25936;SDS011;13733;51.178;4.450;2023-04-01T16:06:30;3.90;;;2.53;;
25936;SDS011;13733;51.178;4.450;2023-04-01T16:14:39;5.20;;;3.05;;
25936;SDS011;13733;51.178;4.450;2023-04-01T16:22:53;5.47;;;3.40;;
25936;SDS011;13733;51.178;4.450;2023-04-01T16:25:41;7.18;;;4.50;;
25936;SDS011;13733;51.178;4.450;2023-04-01T16:36:10;5.05;;;3.72;;
25936;SDS011;13733;51.178;4.450;2023-04-01T16:44:31;6.80;;;3.90;;
25936;SDS011;13733;51.178;4.450;2023-04-01T16:47:20;6.38;;;4.00;;
25936;SDS011;13733;51.178;4.450;2023-04-01T16:55:51;6.78;;;4.25;;
25936;SDS011;13733;51.178;4.450;2023-04-01T16:58:27;7.13;;;4.25;;
25936;SDS011;13733;51.178;4.450;2023-04-01T17:01:20;5.03;;;4.18;;
25936;SDS011;13733;51.178;4.450;2023-04-01T17:03:53;6.60;;;4.13;;
25936;SDS011;13733;51.178;4.450;2023-04-01T17:06:31;9.40;;;4.72;;
25936;SDS011;13733;51.178;4.450;2023-04-01T17:09:04;13.48;;;5.22;;
25936;SDS011;13733;51.178;4.450;2023-04-01T17:11:53;8.13;;;5.55;;
25936;SDS011;13733;51.178;4.450;2023-04-01T17:17:27;8.18;;;4.35;;
25936;SDS011;13733;51.178;4.450;2023-04-01T17:22:49;8.93;;;3.70;;
25936;SDS011;13733;51.178;4.450;2023-04-01T17:30:41;9.02;;;3.67;;
25936;SDS011;13733;51.178;4.450;2023-04-01T17:36:14;5.70;;;3.47;;
25936;SDS011;13733;51.178;4.450;2023-04-01T17:39:13;6.03;;;3.53;;
25936;SDS011;13733;51.178;4.450;2023-04-01T17:42:15;6.22;;;3.60;;
25936;SDS011;13733;51.178;4.450;2023-04-01T18:09:04;24.35;;;10.95;;
25936;SDS011;13733;51.178;4.450;2023-04-01T18:14:20;26.58;;;11.30;;
25936;SDS011;13733;51.178;4.450;2023-04-01T18:17:31;21.23;;;10.10;;
25936;SDS011;13733;51.178;4.450;2023-04-01T18:26:06;26.92;;;11.90;;
25936;SDS011;13733;51.178;4.450;2023-04-01T18:28:47;30.60;;;12.48;;
25936;SDS011;13733;51.178;4.450;2023-04-01T18:31:21;33.47;;;13.82;;
25936;SDS011;13733;51.178;4.450;2023-04-01T18:36:53;28.35;;;13.23;;
25936;SDS011;13733;51.178;4.450;2023-04-01T18:39:35;40.00;;;16.08;;
25936;SDS011;13733;51.178;4.450;2023-04-01T18:47:59;33.90;;;13.00;;
25936;SDS011;13733;51.178;4.450;2023-04-01T18:53:24;32.55;;;12.45;;
25936;SDS011;13733;51.178;4.450;2023-04-01T18:58:32;24.80;;;13.30;;
25936;SDS011;13733;51.178;4.450;2023-04-01T19:01:55;24.67;;;11.90;;
25936;SDS011;13733;51.178;4.450;2023-04-01T19:04:14;36.05;;;17.63;;
25936;SDS011;13733;51.178;4.450;2023-04-01T19:06:48;34.05;;;18.23;;
25936;SDS011;13733;51.178;4.450;2023-04-01T19:09:24;39.50;;;20.83;;
25936;SDS011;13733;51.178;4.450;2023-04-01T19:12:12;40.05;;;22.55;;
25936;SDS011;13733;51.178;4.450;2023-04-01T19:17:17;47.15;;;23.23;;
25936;SDS011;13733;51.178;4.450;2023-04-01T19:33:59;45.58;;;25.05;;
25936;SDS011;13733;51.178;4.450;2023-04-01T19:36:48;48.42;;;24.52;;
25936;SDS011;13733;51.178;4.450;2023-04-01T19:52:39;43.40;;;24.67;;
25936;SDS011;13733;51.178;4.450;2023-04-01T20:05:57;30.38;;;20.45;;
25936;SDS011;13733;51.178;4.450;2023-04-01T20:11:13;34.65;;;19.77;;
25936;SDS011;13733;51.178;4.450;2023-04-01T20:22:02;21.13;;;16.42;;
25936;SDS011;13733;51.178;4.450;2023-04-01T20:24:43;27.13;;;14.35;;
25936;SDS011;13733;51.178;4.450;2023-04-01T20:27:16;20.90;;;14.80;;
25936;SDS011;13733;51.178;4.450;2023-04-01T20:38:19;12.57;;;11.27;;
25936;SDS011;13733;51.178;4.450;2023-04-01T20:41:02;13.80;;;11.55;;
25936;SDS011;13733;51.178;4.450;2023-04-01T20:43:42;13.48;;;11.25;;
25936;SDS011;13733;51.178;4.450;2023-04-01T20:46:20;11.57;;;10.38;;
25936;SDS011;13733;51.178;4.450;2023-04-01T20:52:02;11.68;;;10.48;;
25936;SDS011;13733;51.178;4.450;2023-04-01T20:54:35;12.43;;;10.88;;
25936;SDS011;13733;51.178;4.450;2023-04-01T20:57:24;11.03;;;9.90;;
25936;SDS011;13733;51.178;4.450;2023-04-01T21:10:43;10.63;;;9.52;;
25936;SDS011;13733;51.178;4.450;2023-04-01T21:22:04;11.00;;;9.85;;
25936;SDS011;13733;51.178;4.450;2023-04-01T21:24:38;11.35;;;10.20;;
25936;SDS011;13733;51.178;4.450;2023-04-01T21:36:08;12.85;;;11.52;;
25936;SDS011;13733;51.178;4.450;2023-04-01T21:47:16;15.82;;;12.48;;
25936;SDS011;13733;51.178;4.450;2023-04-01T22:06:47;18.10;;;15.63;;
25936;SDS011;13733;51.178;4.450;2023-04-01T22:09:28;17.20;;;15.43;;
25936;SDS011;13733;51.178;4.450;2023-04-01T22:12:04;18.67;;;14.35;;
25936;SDS011;13733;51.178;4.450;2023-04-01T22:14:48;15.35;;;13.75;;
25936;SDS011;13733;51.178;4.450;2023-04-01T22:17:26;16.27;;;14.57;;
25936;SDS011;13733;51.178;4.450;2023-04-01T22:19:59;16.02;;;14.32;;
25936;SDS011;13733;51.178;4.450;2023-04-01T22:25:29;18.08;;;16.17;;
25936;SDS011;13733;51.178;4.450;2023-04-01T22:28:07;16.95;;;15.25;;
25936;SDS011;13733;51.178;4.450;2023-04-01T22:30:41;18.08;;;16.17;;
25936;SDS011;13733;51.178;4.450;2023-04-01T22:36:36;21.48;;;16.35;;
25936;SDS011;13733;51.178;4.450;2023-04-01T22:39:29;16.88;;;15.18;;
25936;SDS011;13733;51.178;4.450;2023-04-01T22:47:14;20.58;;;18.38;;
25936;SDS011;13733;51.178;4.450;2023-04-01T22:52:50;21.90;;;19.70;;
25936;SDS011;13733;51.178;4.450;2023-04-01T22:55:32;21.27;;;19.00;;
25936;SDS011;13733;51.178;4.450;2023-04-01T22:58:46;21.10;;;18.35;;
25936;SDS011;13733;51.178;4.450;2023-04-01T23:01:05;23.80;;;19.55;;
25936;SDS011;13733;51.178;4.450;2023-04-01T23:03:39;20.38;;;18.23;;
25936;SDS011;13733;51.178;4.450;2023-04-01T23:06:09;23.17;;;20.13;;
25936;SDS011;13733;51.178;4.450;2023-04-01T23:11:32;23.88;;;19.25;;
25936;SDS011;13733;51.178;4.450;2023-04-01T23:22:43;21.17;;;18.40;;
25936;SDS011;13733;51.178;4.450;2023-04-01T23:35:52;20.02;;;17.88;;
25936;SDS011;13733;51.178;4.450;2023-04-01T23:38:25;18.92;;;16.33;;
25936;SDS011;13733;51.178;4.450;2023-04-01T23:40:52;17.13;;;15.32;;
25936;SDS011;13733;51.178;4.450;2023-04-01T23:43:33;17.27;;;15.05;;
25936;SDS011;13733;51.178;4.450;2023-04-01T23:46:05;16.55;;;14.02;;
25936;SDS011;13733;51.178;4.450;2023-04-01T23:48:39;17.17;;;14.80;;
25936;SDS011;13733;51.178;4.450;2023-04-01T23:51:18;17.98;;;15.52;;
25936;SDS011;13733;51.178;4.450;2023-04-01T23:53:47;17.55;;;15.00;;
25936;SDS011;13733;51.178;4.450;2023-04-01T23:56:21;16.98;;;14.60;;
25936;SDS011;13733;51.178;4.450;2023-04-01T23:58:48;18.05;;;16.15;;
